createdAt,value
2023-03-27T00:00:13.238Z,2.45
2023-03-27T00:02:41.590Z,1.90
2023-03-27T00:05:10.428Z,2.35
2023-03-27T00:07:41.351Z,2.30
2023-03-27T00:10:10.432Z,2.75
2023-03-27T00:12:39.149Z,2.97
2023-03-27T00:15:08.348Z,2.35
2023-03-27T00:17:36.989Z,2.33
2023-03-27T00:20:06.506Z,2.17
2023-03-27T00:22:35.966Z,3.30
2023-03-27T00:25:06.276Z,1.95
2023-03-27T00:27:34.398Z,2.08
2023-03-27T00:30:05.171Z,3.13
2023-03-27T00:32:33.545Z,2.90
2023-03-27T00:35:01.750Z,1.63
2023-03-27T00:37:30.013Z,2.05
2023-03-27T00:39:58.122Z,2.47
2023-03-27T00:42:27.580Z,1.80
2023-03-27T00:44:55.701Z,1.95
2023-03-27T00:47:34.300Z,1.73
2023-03-27T00:50:06.628Z,1.92
2023-03-27T00:52:37.167Z,1.92
2023-03-27T00:55:12.237Z,1.60
2023-03-27T00:57:41.871Z,2.10
2023-03-27T01:00:14.222Z,2.80
2023-03-27T01:02:43.592Z,1.70
2023-03-27T01:05:13.739Z,2.10
2023-03-27T01:07:42.029Z,1.73
2023-03-27T01:10:37.060Z,1.45
2023-03-27T01:13:20.820Z,3.15
2023-03-27T01:15:54.660Z,3.50
2023-03-27T01:18:34.414Z,1.92
2023-03-27T01:21:41.412Z,1.48
2023-03-27T01:24:39.349Z,2.25
2023-03-27T01:27:16.257Z,2.50
2023-03-27T01:30:01.637Z,1.60
2023-03-27T01:33:02.755Z,1.20
2023-03-27T01:35:56.673Z,3.28
2023-03-27T01:38:58.973Z,2.42
2023-03-27T01:41:32.536Z,2.67
2023-03-27T01:44:04.673Z,2.17
2023-03-27T01:46:41.822Z,1.92
2023-03-27T01:49:14.131Z,1.63
2023-03-27T01:51:48.150Z,3.65
2023-03-27T01:54:21.759Z,1.70
2023-03-27T01:56:55.998Z,2.28
2023-03-27T01:59:28.234Z,2.53
2023-03-27T02:02:01.214Z,1.48
2023-03-27T02:04:35.871Z,2.25
2023-03-27T02:07:08.863Z,2.05
2023-03-27T02:09:40.428Z,2.95
2023-03-27T02:12:13.434Z,2.35
2023-03-27T02:14:44.802Z,2.70
2023-03-27T02:17:16.254Z,2.10
2023-03-27T02:19:51.066Z,2.25
2023-03-27T02:22:19.182Z,1.95
2023-03-27T02:25:28.345Z,2.83
2023-03-27T02:28:07.816Z,2.13
2023-03-27T02:30:41.313Z,3.42
2023-03-27T02:33:17.830Z,2.55
2023-03-27T02:35:52.017Z,1.75
2023-03-27T02:38:26.994Z,2.92
2023-03-27T02:41:03.916Z,2.05
2023-03-27T02:43:38.243Z,1.67
2023-03-27T02:46:13.754Z,1.98
2023-03-27T02:48:46.321Z,2.03
2023-03-27T02:51:18.645Z,1.42
2023-03-27T02:53:51.100Z,2.88
2023-03-27T02:56:24.096Z,1.55
2023-03-27T02:58:57.545Z,2.30
2023-03-27T03:01:27.800Z,1.77
2023-03-27T03:04:00.072Z,2.40
2023-03-27T03:06:30.463Z,2.53
2023-03-27T03:09:02.889Z,1.60
2023-03-27T03:11:31.909Z,2.13
2023-03-27T03:14:01.616Z,2.17
2023-03-27T03:16:30.636Z,2.08
2023-03-27T03:18:58.803Z,1.88
2023-03-27T03:21:26.932Z,1.23
2023-03-27T03:23:58.145Z,2.05
2023-03-27T03:26:27.788Z,1.95
2023-03-27T03:29:00.985Z,1.48
2023-03-27T03:31:44.481Z,2.70
2023-03-27T03:34:13.268Z,6.18
2023-03-27T03:36:43.027Z,10.10
2023-03-27T03:39:11.396Z,6.85
2023-03-27T03:41:39.657Z,5.78
2023-03-27T03:44:07.733Z,7.60
2023-03-27T03:46:37.860Z,5.57
2023-03-27T03:49:06.169Z,4.28
2023-03-27T03:51:34.806Z,3.63
2023-03-27T03:54:05.453Z,3.53
2023-03-27T03:56:34.502Z,4.20
2023-03-27T03:59:03.170Z,4.43
2023-03-27T04:01:31.364Z,1.50
2023-03-27T04:04:00.854Z,1.17
2023-03-27T04:06:31.024Z,1.58
2023-03-27T04:08:59.422Z,0.90
2023-03-27T04:11:27.519Z,0.65
2023-03-27T04:13:55.601Z,0.50
2023-03-27T04:16:23.854Z,1.15
2023-03-27T04:18:54.430Z,1.08
2023-03-27T04:21:26.890Z,1.48
2023-03-27T04:24:02.208Z,1.05
2023-03-27T04:26:30.406Z,0.80
2023-03-27T04:28:58.487Z,0.45
2023-03-27T04:31:26.667Z,0.80
2023-03-27T04:33:55.508Z,0.65
2023-03-27T04:36:26.180Z,0.35
2023-03-27T04:38:54.315Z,0.70
2023-03-27T04:41:22.489Z,0.57
2023-03-27T04:43:50.579Z,0.05
2023-03-27T04:46:18.747Z,0.22
2023-03-27T04:48:47.110Z,0.20
2023-03-27T04:51:15.321Z,0.50
2023-03-27T04:53:44.752Z,0.25
2023-03-27T04:56:13.224Z,0.47
2023-03-27T04:58:41.598Z,0.47
2023-03-27T05:01:10.088Z,0.40
2023-03-27T05:03:39.093Z,7.53
2023-03-27T05:06:08.521Z,7.68
2023-03-27T05:08:36.677Z,8.18
2023-03-27T05:11:07.792Z,5.53
2023-03-27T05:13:35.946Z,6.25
2023-03-27T05:16:04.926Z,5.32
2023-03-27T05:18:33.078Z,5.43
2023-03-27T05:21:01.438Z,5.63
2023-03-27T05:23:29.605Z,6.32
2023-03-27T05:25:59.427Z,5.53
2023-03-27T05:28:30.264Z,6.03
2023-03-27T05:30:58.883Z,6.38
2023-03-27T05:33:27.256Z,4.68
2023-03-27T05:35:57.582Z,4.43
2023-03-27T05:38:26.810Z,4.60
2023-03-27T05:40:55.099Z,4.38
2023-03-27T05:43:23.369Z,4.38
2023-03-27T05:45:52.930Z,6.68
2023-03-27T05:48:21.366Z,3.50
2023-03-27T05:50:49.460Z,5.72
2023-03-27T05:53:17.523Z,3.47
2023-03-27T05:55:46.327Z,4.18
2023-03-27T05:58:15.036Z,7.53
2023-03-27T06:00:43.785Z,8.35
2023-03-27T06:03:14.664Z,10.40
2023-03-27T06:05:44.078Z,6.05
2023-03-27T06:08:12.156Z,5.83
2023-03-27T06:10:43.331Z,10.25
2023-03-27T06:13:13.782Z,6.20
2023-03-27T06:15:43.578Z,7.60
2023-03-27T06:18:13.677Z,6.72
2023-03-27T06:23:10.481Z,5.97
2023-03-27T06:25:40.018Z,6.55
2023-03-27T06:28:09.716Z,5.00
2023-03-27T06:30:38.978Z,6.22
2023-03-27T06:33:08.345Z,6.07
2023-03-27T06:35:38.011Z,8.65
2023-03-27T06:38:06.580Z,6.28
2023-03-27T06:40:36.324Z,4.07
2023-03-27T06:43:06.846Z,5.80
2023-03-27T06:45:37.536Z,5.80
2023-03-27T06:48:17.838Z,5.93
2023-03-27T06:50:52.168Z,5.28
2023-03-27T06:55:52.325Z,5.80
2023-03-27T06:58:20.863Z,6.35
2023-03-27T07:00:51.262Z,6.57
2023-03-27T07:03:21.290Z,4.75
2023-03-27T07:08:23.526Z,6.70
2023-03-27T07:11:03.908Z,5.72
2023-03-27T07:13:41.004Z,4.43
2023-03-27T07:18:38.013Z,4.70
2023-03-27T07:21:08.784Z,5.75
2023-03-27T07:23:36.881Z,3.20
2023-03-27T07:26:05.300Z,3.55
2023-03-27T07:28:33.614Z,3.45
2023-03-27T07:31:01.946Z,3.97
2023-03-27T07:33:30.177Z,4.78
2023-03-27T07:35:58.548Z,3.08
2023-03-27T07:38:28.378Z,3.00
2023-03-27T07:40:57.609Z,3.22
2023-03-27T07:43:25.820Z,5.07
2023-03-27T07:45:53.921Z,4.70
2023-03-27T07:48:22.253Z,3.75
2023-03-27T07:50:51.833Z,4.05
2023-03-27T07:53:32.591Z,2.58
2023-03-27T07:58:32.178Z,2.63
2023-03-27T08:01:02.068Z,4.45
2023-03-27T08:03:31.826Z,4.32
2023-03-27T08:06:01.306Z,2.70
2023-03-27T08:08:29.826Z,2.60
2023-03-27T08:10:58.868Z,2.30
2023-03-27T08:13:28.391Z,2.30
2023-03-27T08:16:04.281Z,3.15
2023-03-27T08:18:32.420Z,3.15
2023-03-27T08:21:03.168Z,2.20
2023-03-27T08:23:32.723Z,4.57
2023-03-27T08:26:01.619Z,3.92
2023-03-27T08:28:32.106Z,3.93
2023-03-27T08:31:02.636Z,4.53
2023-03-27T08:33:31.695Z,3.78
2023-03-27T08:35:59.865Z,4.45
2023-03-27T08:38:29.293Z,3.10
2023-03-27T08:40:59.950Z,4.30
2023-03-27T08:43:34.862Z,4.63
2023-03-27T08:46:07.659Z,2.80
2023-03-27T08:48:41.007Z,2.80
2023-03-27T08:51:13.753Z,3.75
2023-03-27T08:53:46.258Z,2.83
2023-03-27T08:56:15.698Z,3.45
2023-03-27T08:58:46.100Z,3.17
2023-03-27T09:01:20.203Z,3.60
2023-03-27T09:03:57.470Z,2.80
2023-03-27T09:06:28.687Z,3.67
2023-03-27T09:09:07.353Z,3.90
2023-03-27T09:11:50.908Z,2.03
2023-03-27T09:14:31.123Z,2.40
2023-03-27T09:17:06.932Z,2.95
2023-03-27T09:19:43.428Z,4.15
2023-03-27T09:22:16.376Z,2.55
2023-03-27T09:24:49.951Z,5.50
2023-03-27T09:27:21.964Z,8.55
2023-03-27T09:30:05.459Z,5.13
2023-03-27T09:32:35.099Z,14.60
2023-03-27T09:35:04.756Z,3.50
2023-03-27T09:42:34.427Z,3.92
2023-03-27T09:45:07.991Z,2.55
2023-03-27T09:47:42.230Z,3.70
2023-03-27T09:50:25.659Z,4.90
2023-03-27T09:53:08.697Z,3.50
2023-03-27T09:55:45.438Z,2.10
2023-03-27T09:58:30.211Z,4.47
2023-03-27T10:01:13.400Z,3.10
2023-03-27T10:03:44.261Z,3.05
2023-03-27T10:06:16.577Z,6.00
2023-03-27T10:08:49.899Z,5.53
2023-03-27T10:11:20.478Z,4.65
2023-03-27T10:13:50.862Z,5.25
2023-03-27T10:16:22.538Z,2.55
2023-03-27T10:18:55.114Z,4.13
2023-03-27T10:21:29.124Z,3.72
2023-03-27T10:24:06.542Z,5.15
2023-03-27T10:26:38.174Z,4.97
2023-03-27T10:29:22.375Z,6.82
2023-03-27T10:31:53.914Z,1.83
2023-03-27T10:34:52.685Z,2.47
2023-03-27T10:37:28.015Z,2.33
2023-03-27T10:39:58.377Z,2.38
2023-03-27T10:42:28.766Z,3.03
2023-03-27T10:44:57.627Z,3.55
2023-03-27T10:47:30.872Z,1.77
2023-03-27T10:50:08.944Z,2.25
2023-03-27T10:52:46.646Z,2.15
2023-03-27T10:55:32.560Z,2.13
2023-03-27T10:58:06.379Z,2.80
2023-03-27T11:00:38.147Z,2.00
2023-03-27T11:03:16.710Z,2.80
2023-03-27T11:05:47.232Z,2.38
2023-03-27T11:08:19.905Z,1.88
2023-03-27T11:10:49.545Z,2.08
2023-03-27T11:13:23.084Z,2.45
2023-03-27T11:15:55.713Z,2.70
2023-03-27T11:18:28.177Z,1.33
2023-03-27T11:21:01.137Z,2.35
2023-03-27T11:23:34.954Z,2.28
2023-03-27T11:26:06.117Z,1.95
2023-03-27T11:28:42.949Z,1.40
2023-03-27T11:31:19.766Z,1.90
2023-03-27T11:33:53.524Z,2.47
2023-03-27T11:36:35.649Z,1.35
2023-03-27T11:39:15.452Z,1.52
2023-03-27T11:41:45.345Z,2.35
2023-03-27T11:44:13.455Z,1.10
2023-03-27T11:47:01.005Z,1.20
2023-03-27T11:49:56.286Z,2.25
2023-03-27T11:52:39.412Z,0.52
2023-03-27T11:55:17.441Z,1.65
2023-03-27T11:58:03.236Z,1.67
2023-03-27T12:00:39.525Z,1.35
2023-03-27T12:03:45.976Z,1.35
2023-03-27T12:06:25.145Z,1.35
2023-03-27T12:09:12.846Z,1.15
2023-03-27T12:11:46.503Z,0.85
2023-03-27T12:14:40.837Z,1.55
2023-03-27T12:17:41.931Z,1.08
2023-03-27T12:20:41.613Z,1.08
2023-03-27T12:23:32.338Z,1.25
2023-03-27T12:26:22.765Z,0.63
2023-03-27T12:29:22.759Z,1.40
2023-03-27T12:32:07.927Z,1.30
2023-03-27T12:34:51.027Z,0.88
2023-03-27T12:37:22.264Z,1.15
2023-03-27T12:39:54.903Z,1.17
2023-03-27T12:42:45.185Z,0.98
2023-03-27T12:45:19.503Z,1.05
2023-03-27T12:48:17.513Z,0.80
2023-03-27T12:50:54.817Z,1.73
2023-03-27T12:53:51.811Z,0.70
2023-03-27T12:56:27.808Z,0.75
2023-03-27T12:58:57.689Z,0.85
2023-03-27T13:04:32.917Z,1.55
2023-03-27T13:07:08.890Z,1.13
2023-03-27T13:10:05.055Z,0.85
2023-03-27T13:13:13.504Z,1.52
2023-03-27T13:15:58.921Z,0.65
2023-03-27T13:18:38.899Z,0.82
2023-03-27T13:21:19.169Z,0.60
2023-03-27T13:24:08.730Z,0.93
2023-03-27T13:26:59.702Z,0.50
2023-03-27T13:29:34.237Z,1.58
2023-03-27T13:32:07.309Z,0.68
2023-03-27T13:34:38.463Z,0.95
2023-03-27T13:37:43.564Z,0.52
2023-03-27T13:40:24.323Z,0.50
2023-03-27T13:42:57.598Z,1.00
2023-03-27T13:45:30.113Z,1.10
2023-03-27T13:48:52.125Z,0.40
2023-03-27T13:51:58.678Z,0.45
2023-03-27T13:54:58.038Z,1.10
2023-03-27T13:57:39.967Z,0.57
2023-03-27T14:00:25.247Z,2.53
2023-03-27T14:03:28.877Z,0.60
2023-03-27T14:06:13.233Z,1.70
2023-03-27T14:08:48.440Z,0.93
2023-03-27T14:11:30.222Z,1.85
2023-03-27T14:14:22.462Z,0.60
2023-03-27T14:17:23.697Z,0.90
2023-03-27T14:20:15.217Z,0.47
2023-03-27T14:22:48.747Z,0.68
2023-03-27T14:25:20.423Z,0.63
2023-03-27T14:27:55.061Z,0.68
2023-03-27T14:30:26.224Z,1.40
2023-03-27T14:32:56.500Z,0.30
2023-03-27T14:35:31.920Z,0.77
2023-03-27T14:38:02.082Z,0.50
2023-03-27T14:40:33.160Z,1.23
2023-03-27T14:43:03.510Z,0.70
2023-03-27T14:45:35.605Z,0.50
2023-03-27T14:48:07.768Z,0.43
2023-03-27T14:50:38.289Z,0.28
2023-03-27T14:53:10.938Z,0.20
2023-03-27T14:55:42.547Z,0.28
2023-03-27T14:58:18.452Z,0.30
2023-03-27T15:00:52.816Z,0.20
2023-03-27T15:03:26.176Z,0.60
2023-03-27T15:05:57.630Z,0.10
2023-03-27T15:08:28.690Z,1.10
2023-03-27T15:10:57.300Z,1.17
2023-03-27T15:13:27.813Z,0.50
2023-03-27T15:15:59.209Z,0.75
2023-03-27T15:18:32.990Z,0.32
2023-03-27T15:21:05.251Z,0.50
2023-03-27T15:23:38.234Z,0.75
2023-03-27T15:26:10.866Z,0.40
2023-03-27T15:28:43.764Z,0.40
2023-03-27T15:31:12.151Z,0.10
2023-03-27T15:33:47.463Z,0.25
2023-03-27T15:36:28.387Z,1.10
2023-03-27T15:39:00.579Z,2.00
2023-03-27T15:41:41.399Z,0.63
2023-03-27T15:44:16.961Z,0.25
2023-03-27T15:46:55.324Z,0.45
2023-03-27T15:49:27.810Z,0.20
2023-03-27T15:51:57.168Z,1.08
2023-03-27T15:54:33.356Z,1.83
2023-03-27T15:57:09.812Z,1.02
2023-03-27T15:59:51.960Z,0.73
2023-03-27T16:02:24.893Z,1.42
2023-03-27T16:04:55.577Z,3.47
2023-03-27T16:07:27.353Z,0.40
2023-03-27T16:09:58.348Z,1.38
2023-03-27T16:12:31.753Z,0.68
2023-03-27T16:15:05.796Z,0.75
2023-03-27T16:17:41.133Z,1.23
2023-03-27T16:20:34.989Z,0.90
2023-03-27T16:23:04.227Z,1.52
2023-03-27T16:25:32.406Z,0.90
2023-03-27T16:28:00.510Z,1.83
2023-03-27T16:30:34.377Z,1.87
2023-03-27T16:33:02.943Z,4.00
2023-03-27T16:35:32.585Z,1.25
2023-03-27T16:38:01.235Z,1.52
2023-03-27T16:40:29.559Z,0.43
2023-03-27T16:42:57.875Z,3.67
2023-03-27T16:45:26.565Z,4.87
2023-03-27T16:47:56.156Z,7.70
2023-03-27T16:50:26.757Z,4.47
2023-03-27T16:52:54.886Z,1.65
2023-03-27T16:55:23.412Z,4.53
2023-03-27T16:57:52.513Z,4.00
2023-03-27T17:00:21.298Z,1.98
2023-03-27T17:02:49.472Z,3.97
2023-03-27T17:05:19.186Z,3.83
2023-03-27T17:07:48.244Z,2.05
2023-03-27T17:10:16.917Z,1.67
2023-03-27T17:12:45.089Z,2.20
2023-03-27T17:15:15.094Z,1.58
2023-03-27T17:17:43.241Z,2.85
2023-03-27T17:20:12.266Z,1.38
2023-03-27T17:22:41.752Z,1.63
2023-03-27T17:27:38.690Z,0.90
2023-03-27T17:30:07.991Z,1.00
2023-03-27T17:32:36.132Z,1.40
2023-03-27T17:35:05.416Z,2.20
2023-03-27T17:37:34.820Z,1.17
2023-03-27T17:42:35.388Z,2.20
2023-03-27T17:45:03.872Z,2.60
2023-03-27T17:47:31.999Z,2.15
2023-03-27T17:50:00.139Z,1.52
2023-03-27T17:52:28.333Z,2.67
2023-03-27T17:54:58.229Z,1.27
2023-03-27T17:57:29.596Z,1.08
2023-03-27T17:59:57.658Z,2.58
2023-03-27T18:02:26.124Z,1.17
2023-03-27T18:04:54.289Z,1.52
2023-03-27T18:07:23.259Z,2.53
2023-03-27T18:09:52.887Z,1.17
2023-03-27T18:12:21.183Z,3.17
2023-03-27T18:14:50.761Z,1.75
2023-03-27T18:19:49.276Z,1.58
2023-03-27T18:22:17.644Z,1.02
2023-03-27T18:24:45.833Z,1.42
2023-03-27T18:27:13.923Z,2.05
2023-03-27T18:29:41.983Z,2.58
2023-03-27T18:32:11.795Z,2.10
2023-03-27T18:34:39.868Z,1.15
2023-03-27T18:37:07.958Z,1.63
2023-03-27T18:39:37.648Z,1.40
2023-03-27T18:42:06.237Z,1.33
2023-03-27T18:44:34.403Z,1.50
2023-03-27T18:47:02.490Z,1.00
2023-03-27T18:49:31.931Z,1.38
2023-03-27T18:52:00.057Z,3.90
2023-03-27T18:54:28.216Z,1.30
2023-03-27T18:56:56.328Z,1.65
2023-03-27T18:59:24.452Z,1.90
2023-03-27T19:01:52.537Z,1.08
2023-03-27T19:04:21.089Z,1.02
2023-03-27T19:06:50.617Z,2.08
2023-03-27T19:09:19.990Z,1.65
2023-03-27T19:11:54.019Z,1.15
2023-03-27T19:14:22.830Z,1.50
2023-03-27T19:16:53.356Z,1.43
2023-03-27T19:19:21.786Z,1.27
2023-03-27T19:21:51.792Z,1.52
2023-03-27T19:24:19.872Z,1.08
2023-03-27T19:26:47.948Z,1.55
2023-03-27T19:29:16.061Z,1.25
2023-03-27T19:31:44.162Z,1.95
2023-03-27T19:34:12.268Z,1.15
2023-03-27T19:36:40.496Z,0.90
2023-03-27T19:39:10.024Z,0.93
2023-03-27T19:41:38.094Z,0.77
2023-03-27T19:44:06.548Z,1.70
2023-03-27T19:46:34.664Z,1.15
2023-03-27T19:49:03.598Z,2.17
2023-03-27T19:51:31.741Z,1.17
2023-03-27T19:53:59.807Z,1.45
2023-03-27T19:56:29.383Z,1.20
2023-03-27T20:01:28.312Z,2.92
2023-03-27T20:03:57.525Z,1.75
2023-03-27T20:06:28.873Z,0.77
2023-03-27T20:08:57.799Z,1.73
2023-03-27T20:11:27.062Z,1.53
2023-03-27T20:13:57.278Z,3.17
2023-03-27T20:16:26.578Z,2.42
2023-03-27T20:19:03.380Z,1.10
2023-03-27T20:21:33.749Z,0.75
2023-03-27T20:24:02.015Z,0.40
2023-03-27T20:26:32.466Z,1.35
2023-03-27T20:29:02.005Z,0.98
2023-03-27T20:31:30.130Z,1.63
2023-03-27T20:33:58.467Z,2.10
2023-03-27T20:36:26.598Z,1.48
2023-03-27T20:38:56.482Z,2.08
2023-03-27T20:41:27.219Z,1.55
2023-03-27T20:43:55.370Z,0.95
2023-03-27T20:46:25.257Z,3.83
2023-03-27T20:48:54.764Z,2.03
2023-03-27T20:51:24.391Z,2.33
2023-03-27T20:53:56.023Z,4.25
2023-03-27T20:56:25.217Z,2.28
2023-03-27T20:58:53.461Z,2.00
2023-03-27T21:01:27.667Z,2.58
2023-03-27T21:03:58.559Z,2.22
2023-03-27T21:06:26.925Z,1.90
2023-03-27T21:08:56.234Z,1.60
2023-03-27T21:11:24.359Z,1.77
2023-03-27T21:13:52.484Z,2.60
2023-03-27T21:16:20.594Z,2.75
2023-03-27T21:18:48.728Z,1.50
2023-03-27T21:21:18.196Z,3.00
2023-03-27T21:23:48.052Z,1.25
2023-03-27T21:28:44.142Z,1.70
2023-03-27T21:31:13.241Z,1.95
2023-03-27T21:33:41.331Z,3.88
2023-03-27T21:36:11.534Z,3.78
2023-03-27T21:38:41.161Z,4.50
2023-03-27T21:41:10.944Z,4.00
2023-03-27T21:46:08.088Z,2.30
2023-03-27T21:48:36.306Z,3.13
2023-03-27T21:51:06.684Z,4.15
2023-03-27T21:53:35.058Z,2.78
2023-03-27T21:56:05.576Z,2.42
2023-03-27T21:58:33.676Z,2.65
2023-03-27T22:01:01.817Z,3.08
2023-03-27T22:03:30.290Z,2.90
2023-03-27T22:06:11.882Z,2.35
2023-03-27T22:08:42.181Z,1.60
2023-03-27T22:11:12.518Z,2.00
2023-03-27T22:13:41.542Z,1.67
2023-03-27T22:16:12.065Z,4.53
2023-03-27T22:18:40.663Z,2.33
2023-03-27T22:21:17.477Z,2.42
2023-03-27T22:23:45.710Z,4.28
2023-03-27T22:26:15.255Z,2.15
2023-03-27T22:28:43.312Z,3.55
2023-03-27T22:31:11.594Z,2.25
2023-03-27T22:33:40.029Z,2.67
2023-03-27T22:36:11.145Z,1.83
2023-03-27T22:38:40.297Z,1.98
2023-03-27T22:41:10.301Z,1.53
2023-03-27T22:43:40.176Z,2.00
2023-03-27T22:48:37.026Z,1.40
2023-03-27T22:51:06.085Z,1.27
2023-03-27T22:53:35.288Z,2.63
2023-03-27T22:56:04.459Z,2.20
2023-03-27T22:58:32.982Z,3.77
2023-03-27T23:01:02.803Z,2.03
2023-03-27T23:03:31.129Z,1.63
2023-03-27T23:05:59.649Z,2.13
2023-03-27T23:08:29.522Z,2.20
2023-03-27T23:10:58.880Z,3.10
2023-03-27T23:13:28.220Z,2.35
2023-03-27T23:15:57.353Z,1.20
2023-03-27T23:18:27.356Z,1.40
2023-03-27T23:23:24.964Z,2.45
2023-03-27T23:25:53.089Z,1.80
2023-03-27T23:28:21.164Z,2.38
2023-03-27T23:30:55.625Z,1.60
2023-03-27T23:33:25.234Z,1.15
2023-03-27T23:36:00.885Z,2.25
2023-03-27T23:38:29.149Z,2.03
2023-03-27T23:40:57.768Z,1.85
2023-03-27T23:43:29.103Z,2.30
2023-03-27T23:45:59.353Z,2.47
2023-03-27T23:48:27.969Z,2.20
2023-03-27T23:50:58.094Z,2.28
2023-03-27T23:53:27.896Z,1.83
2023-03-27T23:55:57.327Z,2.45
2023-03-27T23:58:28.492Z,1.60
